This is the latest recevied weather packets stored in our database for station/object KF6RAL-6. If no packets are shown the sender has not sent any weather packets the latest 10 day(s).
| Time | Temp. | Humidity | Pressure | Rain* | Wind** | Luminosity | Snow |
|---|---|---|---|---|---|---|---|
| 1777024187 | 9.44° C | 47% | 1009.8 hPa | 0 mm | - | - | - |
| 1777023766 | 9.44° C | 45% | 1010.1 hPa | 0 mm | - | - | - |
| 1777023345 | 8.89° C | 47% | 1010.1 hPa | 0 mm | - | - | - |
| 1777022924 | 8.33° C | 53% | 1009.5 hPa | 0 mm | - | - | - |
| 1777022503 | 8.89° C | 54% | 1010 hPa | 0 mm | - | - | - |
| 1777022082 | 9.44° C | 56% | 1009.6 hPa | 0 mm | - | - | - |
| 1777021661 | 10.56° C | 50% | 1009.5 hPa | 0 mm | - | - | - |
| 1777021240 | 10.56° C | 49% | 1009.8 hPa | 0 mm | - | - | - |
| 1777020398 | 10° C | 53% | 1009.9 hPa | 0 mm | - | - | - |
| 1777019977 | 9.44° C | 44% | 1010.2 hPa | 0 mm | - | - | - |
| 1777019558 | 8.89° C | 49% | 1010.3 hPa | 0 mm | - | - | - |
| 1777019135 | 8.33° C | 50% | 1009.8 hPa | 0 mm | - | - | - |
| 1777018716 | 10° C | 48% | 1010.1 hPa | 0 mm | - | - | - |
| 1777018292 | 13.33° C | 41% | 1009.9 hPa | 0 mm | - | - | - |
| 1777017871 | 14.44° C | 29% | 1009.9 hPa | 0 mm | - | - | - |
| 1777017450 | 13.89° C | 30% | 1010.1 hPa | 0 mm | - | - | - |
| 1777016609 | 14.44° C | 28% | 1009.6 hPa | 0 mm | - | - | - |
| 1777016187 | 14.44° C | 28% | 1009.7 hPa | 0 mm | - | - | - |
| 1777015766 | 14.44° C | 28% | 1010.4 hPa | 0 mm | - | - | - |
| 1777015346 | 13.89° C | 30% | 1010 hPa | 0 mm | - | - | - |
| 1777014925 | 13.89° C | 31% | 1010 hPa | 0 mm | - | - | - |
| 1777014503 | 14.44° C | 28% | 1010.2 hPa | 0 mm | - | - | - |
| 1777014082 | 15° C | 28% | 1010.2 hPa | 0 mm | - | - | - |
| 1777013661 | 15° C | 28% | 1010.2 hPa | 0 mm | - | - | - |
| 1777013241 | 15° C | 28% | 1009.7 hPa | 0 mm | - | - | - |
* Rain latest hour (hover to see other rain measurements)
** Current wind speed in m/s (hover to see current wind gust speed)